This is the latest recevied weather packets stored in our database for station/object K5NOC-12. If no packets are shown the sender has not sent any weather packets the latest 10 day(s).
| Time | Temp. | Humidity | Pressure | Rain* | Wind** | Luminosity | Snow |
|---|---|---|---|---|---|---|---|
| 1787930327 | 22.22° C | 75% | 1024.6 hPa | 1.78 mm | - | - | - |
| 1787929427 | 22.22° C | 76% | 1024.6 hPa | 1.78 mm | - | - | - |
| 1787928527 | 22.22° C | 76% | 1024.9 hPa | 1.78 mm | - | - | - |
| 1787927627 | 22.22° C | 70% | 1024.9 hPa | 0.25 mm | - | - | - |
| 1787926726 | 21.67° C | 73% | 1025 hPa | 0 mm | - | - | - |
| 1787925826 | 21.67° C | 76% | 1025 hPa | 0 mm | - | - | - |
| 1787924926 | 21.11° C | 76% | 1024.8 hPa | 0 mm | - | - | - |
| 1787924026 | 21.11° C | 75% | 1025.2 hPa | 0 mm | - | - | - |
| 1787923126 | 21.11° C | 73% | 1025.1 hPa | 0 mm | - | - | - |
| 1787922226 | 21.67° C | 75% | 1024.9 hPa | 0 mm | - | - | - |
| 1787921326 | 21.11° C | 74% | 1024.3 hPa | 0 mm | - | - | - |
| 1787920426 | 21.11° C | 75% | 1024.6 hPa | 0 mm | - | - | - |
| 1787919526 | 20.56° C | 74% | 1024.5 hPa | 0 mm | - | - | - |
| 1787918625 | 20.56° C | 79% | 1024.1 hPa | 1.52 mm | - | - | - |
| 1787917725 | 19.44° C | 86% | 1024.5 hPa | 2.29 mm | - | - | - |
| 1787916825 | 19.44° C | 86% | 1024.6 hPa | 2.29 mm | - | - | - |
| 1787915925 | 20° C | 81% | 1024.7 hPa | 2.29 mm | - | - | - |
| 1787915025 | 22.22° C | 68% | 1024.7 hPa | 0.76 mm | - | - | - |
| 1787914125 | 21.67° C | 63% | 1024.9 hPa | 0 mm | - | - | - |
| 1787913225 | 21.11° C | 64% | 1024 hPa | 0 mm | - | - | - |
| 1787912324 | 21.11° C | 63% | 1023.5 hPa | 0 mm | - | - | - |
| 1787911424 | 20.56° C | 65% | 1023.1 hPa | 0 mm | - | - | - |
| 1787910524 | 20.56° C | 66% | 1023.1 hPa | 0 mm | - | - | - |
| 1787909624 | 21.11° C | 65% | 1022.9 hPa | 0 mm | - | - | - |
| 1787908724 | 21.11° C | 64% | 1022.5 hPa | 0 mm | - | - | - |
* Rain latest hour (hover to see other rain measurements)
** Current wind speed in m/s (hover to see current wind gust speed)